createdAt,value
2023-03-06T00:00:58.018Z,10.98
2023-03-06T00:03:27.648Z,9.13
2023-03-06T00:05:58.617Z,10.02
2023-03-06T00:08:26.415Z,8.63
2023-03-06T00:10:52.880Z,9.25
2023-03-06T00:13:19.826Z,9.30
2023-03-06T00:15:47.407Z,9.05
2023-03-06T00:18:14.364Z,9.48
2023-03-06T00:20:42.857Z,9.00
2023-03-06T00:23:10.192Z,9.90
2023-03-06T00:25:38.548Z,8.32
2023-03-06T00:28:05.816Z,10.20
2023-03-06T00:30:32.434Z,9.55
2023-03-06T00:32:58.826Z,8.60
2023-03-06T00:35:25.222Z,7.63
2023-03-06T00:37:51.692Z,8.85
2023-03-06T00:40:20.199Z,7.85
2023-03-06T00:42:47.834Z,8.00
2023-03-06T00:45:14.942Z,8.15
2023-03-06T00:47:41.609Z,8.68
2023-03-06T00:50:09.418Z,7.13
2023-03-06T00:52:36.504Z,7.63
2023-03-06T00:55:03.181Z,7.72
2023-03-06T00:57:29.710Z,8.07
2023-03-06T00:59:57.098Z,7.95
2023-03-06T01:02:23.546Z,8.38
2023-03-06T01:04:49.913Z,7.35
2023-03-06T01:07:16.398Z,9.07
2023-03-06T01:09:42.809Z,7.97
2023-03-06T01:12:09.439Z,7.97
2023-03-06T01:14:35.886Z,8.02
2023-03-06T01:17:02.334Z,8.07
2023-03-06T01:19:28.750Z,8.93
2023-03-06T01:21:55.124Z,8.77
2023-03-06T01:24:23.850Z,7.72
2023-03-06T01:26:50.248Z,8.77
2023-03-06T01:29:16.637Z,8.20
2023-03-06T01:31:43.156Z,8.35
2023-03-06T01:34:09.499Z,8.40
2023-03-06T01:36:35.932Z,7.93
2023-03-06T01:39:03.598Z,7.75
2023-03-06T01:41:30.103Z,8.23
2023-03-06T01:43:56.698Z,8.35
2023-03-06T01:46:23.012Z,9.15
2023-03-06T01:49:11.977Z,7.82
2023-03-06T01:51:42.595Z,8.40
2023-03-06T01:54:15.050Z,8.07
2023-03-06T01:56:44.129Z,8.45
2023-03-06T01:59:10.767Z,8.60
2023-03-06T02:01:39.749Z,7.75
2023-03-06T02:04:06.886Z,8.52
2023-03-06T02:06:39.502Z,7.55
2023-03-06T02:09:06.653Z,8.60
2023-03-06T02:11:33.577Z,8.73
2023-03-06T02:14:00.316Z,8.15
2023-03-06T02:16:30.148Z,9.00
2023-03-06T02:19:00.107Z,8.75
2023-03-06T02:21:34.249Z,9.35
2023-03-06T02:24:22.226Z,8.32
2023-03-06T02:26:49.669Z,9.32
2023-03-06T02:29:25.946Z,8.35
2023-03-06T02:31:52.736Z,8.82
2023-03-06T02:34:19.027Z,8.65
2023-03-06T02:36:49.483Z,9.38
2023-03-06T02:39:22.110Z,9.82
2023-03-06T02:41:48.479Z,8.47
2023-03-06T02:44:16.124Z,8.45
2023-03-06T02:46:42.658Z,9.85
2023-03-06T02:49:09.722Z,9.40
2023-03-06T02:51:36.167Z,9.88
2023-03-06T02:54:02.601Z,8.65
2023-03-06T02:56:29.010Z,9.00
2023-03-06T02:58:56.733Z,9.70
2023-03-06T03:01:24.464Z,10.57
2023-03-06T03:03:50.942Z,9.55
2023-03-06T03:06:17.338Z,9.45
2023-03-06T03:08:44.477Z,10.25
2023-03-06T03:11:12.151Z,10.55
2023-03-06T03:13:42.373Z,9.23
2023-03-06T03:16:15.347Z,9.63
2023-03-06T03:18:48.134Z,10.07
2023-03-06T03:21:16.745Z,11.35
2023-03-06T03:23:44.191Z,11.05
2023-03-06T03:26:13.360Z,10.55
2023-03-06T03:28:43.488Z,9.68
2023-03-06T03:31:12.259Z,9.68
2023-03-06T03:33:39.923Z,9.90
2023-03-06T03:36:08.165Z,10.68
2023-03-06T03:38:38.389Z,11.60
2023-03-06T03:41:05.213Z,10.40
2023-03-06T03:43:31.719Z,11.02
2023-03-06T03:45:59.199Z,9.70
2023-03-06T03:48:25.796Z,9.93
2023-03-06T03:50:52.301Z,9.57
2023-03-06T03:53:22.593Z,10.77
2023-03-06T03:55:49.270Z,11.00
2023-03-06T03:58:18.082Z,10.38
2023-03-06T04:00:44.675Z,9.73
2023-03-06T04:03:13.811Z,11.75
2023-03-06T04:05:43.059Z,11.40
2023-03-06T04:08:11.589Z,10.45
2023-03-06T04:10:41.532Z,10.63
2023-03-06T04:13:10.224Z,11.02
2023-03-06T04:15:40.026Z,11.68
2023-03-06T04:18:06.601Z,12.23
2023-03-06T04:20:33.474Z,11.75
2023-03-06T04:23:00.442Z,11.80
2023-03-06T04:25:27.114Z,10.25
2023-03-06T04:27:53.513Z,10.25
2023-03-06T04:30:20.081Z,10.93
2023-03-06T04:32:47.225Z,10.02
2023-03-06T04:35:13.665Z,10.80
2023-03-06T04:37:50.518Z,10.18
2023-03-06T04:40:22.532Z,9.88
2023-03-06T04:42:49.194Z,9.85
2023-03-06T04:45:15.703Z,9.95
2023-03-06T04:47:42.467Z,10.43
2023-03-06T04:50:09.548Z,11.82
2023-03-06T04:52:35.974Z,10.02
2023-03-06T04:55:08.369Z,8.93
2023-03-06T04:57:40.028Z,9.25
2023-03-06T05:00:10.050Z,10.93
2023-03-06T05:02:36.721Z,10.05
2023-03-06T05:05:04.327Z,10.10
2023-03-06T05:07:30.871Z,9.90
2023-03-06T05:09:57.249Z,10.20
2023-03-06T05:12:23.612Z,10.35
2023-03-06T05:14:50.018Z,9.40
2023-03-06T05:17:16.383Z,10.80
2023-03-06T05:19:42.751Z,10.48
2023-03-06T05:22:09.119Z,10.73
2023-03-06T05:24:36.466Z,10.82
2023-03-06T05:27:03.839Z,10.23
2023-03-06T05:29:30.251Z,10.32
2023-03-06T05:31:56.658Z,10.27
2023-03-06T05:34:23.059Z,10.70
2023-03-06T05:36:49.457Z,9.68
2023-03-06T05:39:15.870Z,10.10
2023-03-06T05:41:42.213Z,10.48
2023-03-06T05:44:08.601Z,9.75
2023-03-06T05:46:34.967Z,10.75
2023-03-06T05:49:01.404Z,10.57
2023-03-06T05:51:27.863Z,9.80
2023-03-06T05:53:54.237Z,10.45
2023-03-06T05:56:21.719Z,11.38
2023-03-06T05:58:48.605Z,11.40
2023-03-06T06:01:17.729Z,11.05
2023-03-06T06:03:44.361Z,10.40
2023-03-06T06:06:12.757Z,11.88
2023-03-06T06:08:39.644Z,10.90
2023-03-06T06:11:07.567Z,13.77
2023-03-06T06:13:33.994Z,12.32
2023-03-06T06:16:00.465Z,11.45
2023-03-06T06:18:26.874Z,10.95
2023-03-06T06:20:54.927Z,11.32
2023-03-06T06:23:22.282Z,11.70
2023-03-06T06:25:48.753Z,11.02
2023-03-06T06:28:15.219Z,11.05
2023-03-06T06:30:41.638Z,11.18
2023-03-06T06:33:08.828Z,11.27
2023-03-06T06:35:37.065Z,11.70
2023-03-06T06:38:03.535Z,11.15
2023-03-06T06:40:29.903Z,11.27
2023-03-06T06:42:56.264Z,11.63
2023-03-06T06:45:22.682Z,10.85
2023-03-06T06:47:49.994Z,11.38
2023-03-06T06:50:16.670Z,11.82
2023-03-06T06:52:43.157Z,10.52
2023-03-06T06:55:10.498Z,12.00
2023-03-06T06:57:36.932Z,11.23
2023-03-06T07:00:05.248Z,11.10
2023-03-06T07:02:32.214Z,12.02
2023-03-06T07:05:05.939Z,11.98
2023-03-06T07:07:37.092Z,11.00
2023-03-06T07:10:18.907Z,11.30
2023-03-06T07:12:46.559Z,12.57
2023-03-06T07:15:15.381Z,12.55
2023-03-06T07:17:41.941Z,11.93
2023-03-06T07:20:10.329Z,12.65
2023-03-06T07:22:49.921Z,12.65
2023-03-06T07:25:18.132Z,12.05
2023-03-06T07:27:52.607Z,12.85
2023-03-06T07:30:20.262Z,12.63
2023-03-06T07:32:46.624Z,12.85
2023-03-06T07:35:29.423Z,12.25
2023-03-06T07:37:56.042Z,12.75
2023-03-06T07:40:23.404Z,12.48
2023-03-06T07:42:50.031Z,13.05
2023-03-06T07:45:19.697Z,13.85
2023-03-06T07:47:46.247Z,14.68
2023-03-06T07:50:12.959Z,14.02
2023-03-06T07:52:39.404Z,13.90
2023-03-06T07:55:06.306Z,14.00
2023-03-06T07:57:32.693Z,13.57
2023-03-06T07:59:59.082Z,13.60
2023-03-06T08:02:25.523Z,14.23
2023-03-06T08:04:53.879Z,14.45
2023-03-06T08:07:21.284Z,16.13
2023-03-06T08:09:48.313Z,14.73
2023-03-06T08:12:16.627Z,15.13
2023-03-06T08:14:43.098Z,13.30
2023-03-06T08:17:09.480Z,15.23
2023-03-06T08:19:35.849Z,15.52
2023-03-06T08:22:04.470Z,14.35
2023-03-06T08:24:30.937Z,15.43
2023-03-06T08:26:57.525Z,14.77
2023-03-06T08:29:23.925Z,14.93
2023-03-06T08:31:50.484Z,14.02
2023-03-06T08:34:20.634Z,14.77
2023-03-06T08:36:47.144Z,14.55
2023-03-06T08:39:14.051Z,14.75
2023-03-06T08:41:42.071Z,15.25
2023-03-06T08:44:09.402Z,16.38
2023-03-06T08:46:36.255Z,14.95
2023-03-06T08:49:02.767Z,13.52
2023-03-06T08:51:29.344Z,14.50
2023-03-06T08:53:57.358Z,15.55
2023-03-06T08:56:29.694Z,15.15
2023-03-06T08:58:57.430Z,15.73
2023-03-06T09:01:32.709Z,14.07
2023-03-06T09:04:01.910Z,15.48
2023-03-06T09:06:31.630Z,15.25
2023-03-06T09:08:58.368Z,14.05
2023-03-06T09:11:26.283Z,16.15
2023-03-06T09:13:53.702Z,15.80
2023-03-06T09:16:20.419Z,15.32
2023-03-06T09:18:47.195Z,14.57
2023-03-06T09:21:13.596Z,15.38
2023-03-06T09:23:40.032Z,14.25
2023-03-06T09:26:07.286Z,14.07
2023-03-06T09:28:35.881Z,14.68
2023-03-06T09:31:08.136Z,14.23
2023-03-06T09:33:34.626Z,14.52
2023-03-06T09:36:02.286Z,14.98
2023-03-06T09:38:28.681Z,14.32
2023-03-06T09:40:58.179Z,15.00
2023-03-06T09:43:45.377Z,14.10
2023-03-06T09:46:22.715Z,14.40
2023-03-06T09:49:29.079Z,14.18
2023-03-06T09:52:24.740Z,13.57
2023-03-06T09:54:51.026Z,16.45
2023-03-06T09:57:25.781Z,13.80
2023-03-06T09:59:56.419Z,14.75
2023-03-06T10:02:32.647Z,15.60
2023-03-06T10:05:03.832Z,13.68
2023-03-06T10:07:46.010Z,14.10
2023-03-06T10:10:19.916Z,14.02
2023-03-06T10:12:59.534Z,14.30
2023-03-06T10:15:32.171Z,13.93
2023-03-06T10:17:58.853Z,13.38
2023-03-06T10:20:40.873Z,13.43
2023-03-06T10:23:34.512Z,13.43
2023-03-06T10:26:08.363Z,12.10
2023-03-06T10:29:02.492Z,14.60
2023-03-06T10:31:29.120Z,14.98
2023-03-06T10:33:57.750Z,15.35
2023-03-06T10:36:27.219Z,14.68
2023-03-06T10:38:57.758Z,14.02
2023-03-06T10:41:25.798Z,15.23
2023-03-06T10:44:01.363Z,13.52
2023-03-06T10:46:34.311Z,14.90
2023-03-06T10:51:30.172Z,13.45
2023-03-06T10:54:01.964Z,12.95
2023-03-06T10:56:33.140Z,13.02
2023-03-06T10:59:12.922Z,13.40
2023-03-06T11:01:40.895Z,13.55
2023-03-06T11:04:31.160Z,12.15
2023-03-06T11:07:22.870Z,14.07
2023-03-06T11:09:58.409Z,12.55
2023-03-06T11:12:33.313Z,13.93
2023-03-06T11:15:21.373Z,13.27
2023-03-06T11:17:52.553Z,13.38
2023-03-06T11:20:31.757Z,13.55
2023-03-06T11:23:47.144Z,12.05
2023-03-06T11:26:16.094Z,12.45
2023-03-06T11:28:48.504Z,13.23
2023-03-06T11:31:24.224Z,13.27
2023-03-06T11:33:57.023Z,13.90
2023-03-06T11:36:35.954Z,13.15
2023-03-06T11:39:15.561Z,11.63
2023-03-06T11:42:05.352Z,11.80
2023-03-06T11:44:45.364Z,12.40
2023-03-06T11:47:18.217Z,11.85
2023-03-06T11:49:50.569Z,12.50
2023-03-06T11:52:27.021Z,12.13
2023-03-06T11:54:56.833Z,12.57
2023-03-06T11:57:32.946Z,11.23
2023-03-06T12:00:06.920Z,11.35
2023-03-06T12:02:52.011Z,13.02
2023-03-06T12:05:28.224Z,11.73
2023-03-06T12:08:08.073Z,12.77
2023-03-06T12:11:02.313Z,12.82
2023-03-06T12:16:24.645Z,14.05
2023-03-06T12:18:59.787Z,11.43
2023-03-06T12:21:54.487Z,11.98
2023-03-06T12:25:11.206Z,12.93
2023-03-06T12:27:55.109Z,13.25
2023-03-06T12:30:27.728Z,11.23
2023-03-06T12:33:00.099Z,12.15
2023-03-06T12:35:50.445Z,12.20
2023-03-06T12:38:38.773Z,12.30
2023-03-06T12:41:08.127Z,12.80
2023-03-06T12:44:02.913Z,12.18
2023-03-06T12:46:30.462Z,12.90
2023-03-06T12:49:09.459Z,12.55
2023-03-06T12:51:39.256Z,11.60
2023-03-06T12:54:06.752Z,11.73
2023-03-06T12:56:35.274Z,13.23
2023-03-06T12:59:02.521Z,13.80
2023-03-06T13:01:55.385Z,12.75
2023-03-06T13:04:30.660Z,10.50
2023-03-06T13:07:33.915Z,13.15
2023-03-06T13:10:24.804Z,10.13
2023-03-06T13:13:04.911Z,12.05
2023-03-06T13:15:41.704Z,12.77
2023-03-06T13:18:23.439Z,12.20
2023-03-06T13:20:50.058Z,13.13
2023-03-06T13:23:28.900Z,13.18
2023-03-06T13:25:57.452Z,13.48
2023-03-06T13:28:50.076Z,13.05
2023-03-06T13:31:32.133Z,13.45
2023-03-06T13:34:01.799Z,13.95
2023-03-06T13:36:29.501Z,12.77
2023-03-06T13:39:09.508Z,13.77
2023-03-06T13:41:42.471Z,14.05
2023-03-06T13:46:58.494Z,13.40
2023-03-06T13:49:25.933Z,12.48
2023-03-06T13:51:52.226Z,13.52
2023-03-06T13:54:30.687Z,12.88
2023-03-06T13:57:05.863Z,13.90
2023-03-06T14:00:14.330Z,13.05
2023-03-06T14:02:59.592Z,12.48
2023-03-06T14:05:40.949Z,12.07
2023-03-06T14:08:14.851Z,14.27
2023-03-06T14:10:43.324Z,16.08
2023-03-06T14:13:19.714Z,14.30
2023-03-06T14:15:49.726Z,12.80
2023-03-06T14:18:23.586Z,12.80
2023-03-06T14:21:04.278Z,12.57
2023-03-06T14:23:42.331Z,13.13
2023-03-06T14:26:17.369Z,13.65
2023-03-06T14:28:55.447Z,12.10
2023-03-06T14:31:28.633Z,13.27
2023-03-06T14:33:58.416Z,11.90
2023-03-06T14:36:45.349Z,13.65
2023-03-06T14:39:21.272Z,12.52
2023-03-06T14:41:47.710Z,13.32
2023-03-06T14:44:21.799Z,12.75
2023-03-06T14:46:56.267Z,12.50
2023-03-06T14:49:25.409Z,12.60
2023-03-06T14:51:55.197Z,11.63
2023-03-06T14:54:24.436Z,11.95
2023-03-06T14:56:54.026Z,11.25
2023-03-06T14:59:25.740Z,12.32
2023-03-06T15:01:57.798Z,12.45
2023-03-06T15:04:41.907Z,11.77
2023-03-06T15:07:13.343Z,11.40
2023-03-06T15:09:45.072Z,11.27
2023-03-06T15:12:20.752Z,11.95
2023-03-06T15:14:59.288Z,11.77
2023-03-06T15:17:32.383Z,10.82
2023-03-06T15:22:29.138Z,10.60
2023-03-06T15:25:18.707Z,12.32
2023-03-06T15:27:53.952Z,11.73
2023-03-06T15:30:23.218Z,11.75
2023-03-06T15:32:49.606Z,11.48
2023-03-06T15:35:32.731Z,12.98
2023-03-06T15:37:59.623Z,12.23
2023-03-06T15:40:30.636Z,12.07
2023-03-06T15:43:00.120Z,12.10
2023-03-06T15:45:28.193Z,11.95
2023-03-06T15:47:55.765Z,11.15
2023-03-06T15:50:25.360Z,11.20
2023-03-06T15:52:52.233Z,11.20
2023-03-06T15:55:21.717Z,10.85
2023-03-06T15:57:56.583Z,13.57
2023-03-06T16:00:28.704Z,11.00
2023-03-06T16:02:56.548Z,11.65
2023-03-06T16:05:23.819Z,10.73
2023-03-06T16:07:50.579Z,11.30
2023-03-06T16:10:19.579Z,12.15
2023-03-06T16:12:52.022Z,12.30
2023-03-06T16:15:30.525Z,11.32
2023-03-06T16:17:57.820Z,12.80
2023-03-06T16:20:27.380Z,12.40
2023-03-06T16:22:54.733Z,12.88
2023-03-06T16:25:23.204Z,13.52
2023-03-06T16:27:58.321Z,12.25
2023-03-06T16:30:30.151Z,10.45
2023-03-06T16:32:57.117Z,11.15
2023-03-06T16:35:24.275Z,11.60
2023-03-06T16:37:50.710Z,12.00
2023-03-06T16:40:30.309Z,11.05
2023-03-06T16:42:56.748Z,11.32
2023-03-06T16:45:24.423Z,11.32
2023-03-06T16:47:51.161Z,10.85
2023-03-06T16:50:44.170Z,11.93
2023-03-06T16:53:10.653Z,10.32
2023-03-06T16:55:37.280Z,11.15
2023-03-06T16:58:04.384Z,11.90
2023-03-06T17:00:33.068Z,10.52
2023-03-06T17:03:01.170Z,11.00
2023-03-06T17:05:28.709Z,10.48
2023-03-06T17:07:55.719Z,11.38
2023-03-06T17:10:26.089Z,10.85
2023-03-06T17:12:53.177Z,11.43
2023-03-06T17:15:20.155Z,10.57
2023-03-06T17:17:47.124Z,10.90
2023-03-06T17:20:13.674Z,12.48
2023-03-06T17:22:41.388Z,11.23
2023-03-06T17:25:08.768Z,11.23
2023-03-06T17:27:35.914Z,11.70
2023-03-06T17:30:02.758Z,10.05
2023-03-06T17:32:29.402Z,10.90
2023-03-06T17:34:56.268Z,11.23
2023-03-06T17:37:22.758Z,11.20
2023-03-06T17:39:49.688Z,10.10
2023-03-06T17:42:16.246Z,11.35
2023-03-06T17:44:42.929Z,10.50
2023-03-06T17:47:09.452Z,12.20
2023-03-06T17:49:35.840Z,12.00
2023-03-06T17:52:04.721Z,11.25
2023-03-06T17:54:33.030Z,11.45
2023-03-06T17:57:03.150Z,11.40
2023-03-06T17:59:30.478Z,11.60
2023-03-06T18:02:01.108Z,11.48
2023-03-06T18:04:29.332Z,11.68
2023-03-06T18:06:56.965Z,10.63
2023-03-06T18:09:23.774Z,11.43
2023-03-06T18:11:50.155Z,12.52
2023-03-06T18:14:16.594Z,12.15
2023-03-06T18:16:43.065Z,12.25
2023-03-06T18:19:10.950Z,11.43
2023-03-06T18:21:38.446Z,11.70
2023-03-06T18:24:05.234Z,11.65
2023-03-06T18:26:32.078Z,15.65
2023-03-06T18:29:01.325Z,15.20
2023-03-06T18:31:34.069Z,12.68
2023-03-06T18:36:31.507Z,14.60
2023-03-06T18:38:58.748Z,12.90
2023-03-06T18:41:25.220Z,12.68
2023-03-06T18:43:53.711Z,11.77
2023-03-06T18:46:20.474Z,12.68
2023-03-06T18:48:46.843Z,12.35
2023-03-06T18:51:13.928Z,18.50
2023-03-06T18:53:40.954Z,12.38
2023-03-06T18:56:10.518Z,13.60
2023-03-06T18:58:36.942Z,12.80
2023-03-06T19:01:07.328Z,13.75
2023-03-06T19:03:33.909Z,14.50
2023-03-06T19:06:04.539Z,14.68
2023-03-06T19:08:32.049Z,14.27
2023-03-06T19:11:03.428Z,13.93
2023-03-06T19:13:30.494Z,15.57
2023-03-06T19:15:57.666Z,14.30
2023-03-06T19:18:26.092Z,15.05
2023-03-06T19:20:53.163Z,19.35
2023-03-06T19:23:21.040Z,19.35
2023-03-06T19:25:57.869Z,16.13
2023-03-06T19:28:24.699Z,14.40
2023-03-06T19:30:51.303Z,14.32
2023-03-06T19:33:18.432Z,14.07
2023-03-06T19:35:44.814Z,13.57
2023-03-06T19:38:12.123Z,17.00
2023-03-06T19:40:38.532Z,16.98
2023-03-06T19:43:04.990Z,16.40
2023-03-06T19:45:31.369Z,18.45
2023-03-06T19:48:01.131Z,21.25
2023-03-06T19:50:31.074Z,17.45
2023-03-06T19:52:58.351Z,17.33
2023-03-06T19:55:26.223Z,14.88
2023-03-06T19:57:53.104Z,16.17
2023-03-06T20:00:19.760Z,15.75
2023-03-06T20:02:46.388Z,15.15
2023-03-06T20:05:12.814Z,15.43
2023-03-06T20:07:39.233Z,16.35
2023-03-06T20:10:05.838Z,15.73
2023-03-06T20:12:33.108Z,16.42
2023-03-06T20:14:59.837Z,16.55
2023-03-06T20:17:26.234Z,14.63
2023-03-06T20:19:52.871Z,14.50
2023-03-06T20:22:19.670Z,15.32
2023-03-06T20:24:46.428Z,15.38
2023-03-06T20:27:13.029Z,16.13
2023-03-06T20:29:44.408Z,14.50
2023-03-06T20:32:12.413Z,15.68
2023-03-06T20:34:39.453Z,14.48
2023-03-06T20:37:07.411Z,15.85
2023-03-06T20:39:34.180Z,16.08
2023-03-06T20:42:01.021Z,15.23
2023-03-06T20:44:27.472Z,15.18
2023-03-06T20:46:55.119Z,15.68
2023-03-06T20:49:21.912Z,14.43
2023-03-06T20:51:49.790Z,16.27
2023-03-06T20:54:17.068Z,17.48
2023-03-06T20:56:47.637Z,16.02
2023-03-06T20:59:15.026Z,15.80
2023-03-06T21:01:43.760Z,15.77
2023-03-06T21:04:13.628Z,16.27
2023-03-06T21:06:42.375Z,17.02
2023-03-06T21:09:08.856Z,16.17
2023-03-06T21:11:35.512Z,16.20
2023-03-06T21:14:02.237Z,16.30
2023-03-06T21:16:32.808Z,15.98
2023-03-06T21:19:00.309Z,15.35
2023-03-06T21:21:30.632Z,15.13
2023-03-06T21:23:57.610Z,17.85
2023-03-06T21:26:26.735Z,16.45
2023-03-06T21:28:55.951Z,16.75
2023-03-06T21:31:22.771Z,16.50
2023-03-06T21:33:50.017Z,14.45
2023-03-06T21:36:18.551Z,14.82
2023-03-06T21:38:45.231Z,15.05
2023-03-06T21:41:19.239Z,15.15
2023-03-06T21:43:45.960Z,16.17
2023-03-06T21:46:12.341Z,15.50
2023-03-06T21:48:38.906Z,15.95
2023-03-06T21:51:08.347Z,16.17
2023-03-06T21:53:35.602Z,16.25
2023-03-06T21:56:02.940Z,17.33
2023-03-06T21:58:30.002Z,17.60
2023-03-06T22:00:57.116Z,17.10
2023-03-06T22:03:23.816Z,16.30
2023-03-06T22:05:52.103Z,16.15
2023-03-06T22:08:21.221Z,17.13
2023-03-06T22:10:48.942Z,16.90
2023-03-06T22:13:16.051Z,17.17
2023-03-06T22:15:50.083Z,16.40
2023-03-06T22:18:16.473Z,18.27
2023-03-06T22:20:42.993Z,17.98
2023-03-06T22:23:09.376Z,16.65
2023-03-06T22:25:35.704Z,17.30
2023-03-06T22:28:02.081Z,17.88
2023-03-06T22:30:28.416Z,19.25
2023-03-06T22:32:54.780Z,17.63
2023-03-06T22:35:21.191Z,16.52
2023-03-06T22:37:47.778Z,18.63
2023-03-06T22:40:14.258Z,17.30
2023-03-06T22:42:40.645Z,18.17
2023-03-06T22:45:08.191Z,19.67
2023-03-06T22:47:38.305Z,17.58
2023-03-06T22:50:06.516Z,17.92
2023-03-06T22:52:33.393Z,16.58
2023-03-06T22:54:59.752Z,18.30
2023-03-06T22:57:26.110Z,19.27
2023-03-06T22:59:52.467Z,18.90
2023-03-06T23:02:18.955Z,18.85
2023-03-06T23:04:52.192Z,18.38
2023-03-06T23:07:20.312Z,19.40
2023-03-06T23:09:47.612Z,19.42
2023-03-06T23:12:32.852Z,18.27
2023-03-06T23:15:18.117Z,18.60
2023-03-06T23:18:03.695Z,18.58
2023-03-06T23:20:48.927Z,18.20
2023-03-06T23:23:34.062Z,18.40
2023-03-06T23:26:01.467Z,19.63
2023-03-06T23:28:28.610Z,18.77
2023-03-06T23:30:55.022Z,19.17
2023-03-06T23:33:21.567Z,19.20
2023-03-06T23:35:48.054Z,20.33
2023-03-06T23:38:14.463Z,17.67
2023-03-06T23:40:40.994Z,19.38
2023-03-06T23:43:07.463Z,20.67
2023-03-06T23:45:33.858Z,20.02
2023-03-06T23:48:00.228Z,18.88
2023-03-06T23:50:26.642Z,20.83
2023-03-06T23:52:54.537Z,19.38
2023-03-06T23:55:21.580Z,22.35
2023-03-06T23:57:47.949Z,22.02
